logo
Search for airport 
image banner adimage banner adimage banner ad
image banner ad

SD7Z - Fazenda Tartus

Located in Porto Franco, Brazil

ICAO - SD7Z, IATA -

Data provided by Airmate  

General information

Coordinates: S6°15'10" W47°8'57"
Elevation is 744 feet MSL.
Magnetic variation is -21.242540053° East
View others Airports in Tocatins

Operational data

Special qualification required
Current time UTC:
Current local time:
Weather at : - ( 0 km )
METAR: ZMUB 251700Z VRB01MPS CAVOK 03/M01 Q1018 NOSIG RMK QFE656.2 75
View NOTAMs / SUP AIP / TFR affecting this airport [VIEW]
Communications frequencies: [VIEW]

Runways:

RWY identifierQFULength (ft)Width (ft)SurfaceLDA (ft)
08328159OTHER
26328159OTHER

Airport contact information

Address: Porto Franco Brazil

Satellite view of SD7Z